createdAt,value
2019-06-10T00:01:45.427Z,11.95
2019-06-10T00:04:15.848Z,11.88
2019-06-10T00:06:46.550Z,11.84
2019-06-10T00:09:17.259Z,11.80
2019-06-10T00:11:48.430Z,11.74
2019-06-10T00:14:21.233Z,11.73
2019-06-10T00:16:56.803Z,11.69
2019-06-10T00:19:27.366Z,11.66
2019-06-10T00:22:02.518Z,11.55
2019-06-10T00:24:33.086Z,11.54
2019-06-10T00:27:05.468Z,11.48
2019-06-10T00:29:35.908Z,11.43
2019-06-10T00:32:07.992Z,11.37
2019-06-10T00:34:38.443Z,11.36
2019-06-10T00:37:10.313Z,11.44
2019-06-10T00:39:43.267Z,11.40
2019-06-10T00:42:15.560Z,11.33
2019-06-10T00:44:47.805Z,11.33
2019-06-10T00:47:21.045Z,11.30
2019-06-10T00:49:53.552Z,11.27
2019-06-10T00:52:24.995Z,11.19
2019-06-10T00:54:56.720Z,11.20
2019-06-10T00:57:27.150Z,11.24
2019-06-10T00:59:57.887Z,11.28
2019-06-10T01:02:28.645Z,11.34
2019-06-10T01:05:00.827Z,11.38
2019-06-10T01:07:31.231Z,11.47
2019-06-10T01:10:02.853Z,11.48
2019-06-10T01:12:33.780Z,11.46
2019-06-10T01:15:05.269Z,11.49
2019-06-10T01:17:37.143Z,11.56
2019-06-10T01:20:10.671Z,11.57
2019-06-10T01:22:41.411Z,11.59
2019-06-10T01:25:14.805Z,11.56
2019-06-10T01:27:44.592Z,11.61
2019-06-10T01:30:21.808Z,11.65
2019-06-10T01:32:50.666Z,11.61
2019-06-10T01:35:21.223Z,11.64
2019-06-10T01:37:52.397Z,11.70
2019-06-10T01:40:23.216Z,11.71
2019-06-10T01:42:53.555Z,11.66
2019-06-10T01:45:24.308Z,11.65
2019-06-10T01:47:55.425Z,11.73
2019-06-10T01:50:26.095Z,11.78
2019-06-10T01:52:56.528Z,11.78
2019-06-10T01:55:27.063Z,11.79
2019-06-10T01:58:00.738Z,11.79
2019-06-10T02:00:41.681Z,11.78
2019-06-10T02:03:13.530Z,11.88
2019-06-10T02:05:43.434Z,11.86
2019-06-10T02:08:17.437Z,11.88
2019-06-10T02:10:50.820Z,11.86
2019-06-10T02:13:40.935Z,11.88
2019-06-10T02:16:15.712Z,11.86
2019-06-10T02:18:59.784Z,11.93
2019-06-10T02:21:22.148Z,11.96
2019-06-10T02:23:52.051Z,12.01
2019-06-10T02:26:24.163Z,12.03
2019-06-10T02:28:54.723Z,12.08
2019-06-10T02:31:30.035Z,12.16
2019-06-10T02:33:57.421Z,12.21
2019-06-10T02:36:31.477Z,12.22
2019-06-10T02:39:04.293Z,12.26
2019-06-10T02:41:36.344Z,12.29
2019-06-10T02:44:06.994Z,12.28
2019-06-10T02:46:37.248Z,12.25
2019-06-10T02:49:24.804Z,12.24
2019-06-10T02:51:43.744Z,12.22
2019-06-10T02:54:16.907Z,12.23
2019-06-10T02:56:48.816Z,12.19
2019-06-10T02:59:21.554Z,12.23
2019-06-10T03:01:53.627Z,12.32
2019-06-10T03:04:31.337Z,12.30
2019-06-10T03:06:57.354Z,12.38
2019-06-10T03:09:31.992Z,12.37
2019-06-10T03:12:04.643Z,12.36
2019-06-10T03:14:38.753Z,12.43
2019-06-10T03:17:13.026Z,12.45
2019-06-10T03:19:50.640Z,12.51
2019-06-10T03:22:22.979Z,12.56
2019-06-10T03:24:55.775Z,12.52
2019-06-10T03:27:27.869Z,12.57
2019-06-10T03:29:58.469Z,12.63
2019-06-10T03:32:36.688Z,12.67
2019-06-10T03:35:05.323Z,12.71
2019-06-10T03:37:34.551Z,12.75
2019-06-10T03:40:05.339Z,12.77
2019-06-10T03:42:37.653Z,12.83
2019-06-10T03:45:08.709Z,12.89
2019-06-10T03:47:39.254Z,12.96
2019-06-10T03:50:13.320Z,12.98
2019-06-10T03:52:45.213Z,13.05
2019-06-10T03:55:17.220Z,13.18
2019-06-10T03:57:47.851Z,13.24
2019-06-10T04:00:19.499Z,13.33
2019-06-10T04:02:50.297Z,13.36
2019-06-10T04:05:23.879Z,13.40
2019-06-10T04:07:53.808Z,13.40
2019-06-10T04:10:28.780Z,13.40
2019-06-10T04:12:58.914Z,13.50
2019-06-10T04:15:29.690Z,13.46
2019-06-10T04:18:03.927Z,13.49
2019-06-10T04:20:34.843Z,13.53
2019-06-10T04:23:05.511Z,13.66
2019-06-10T04:25:39.499Z,13.70
2019-06-10T04:28:12.385Z,13.72
2019-06-10T04:30:43.182Z,13.79
2019-06-10T04:33:15.290Z,13.85
2019-06-10T04:35:46.160Z,13.71
2019-06-10T04:38:17.190Z,13.78
2019-06-10T04:40:52.559Z,13.86
2019-06-10T04:43:26.009Z,13.92
2019-06-10T04:45:56.263Z,14.11
2019-06-10T04:48:28.109Z,14.15
2019-06-10T04:51:02.453Z,14.18
2019-06-10T04:53:40.251Z,14.15
2019-06-10T04:56:15.348Z,14.23
2019-06-10T04:58:46.080Z,14.37
2019-06-10T05:01:16.481Z,14.43
2019-06-10T05:03:47.047Z,14.45
2019-06-10T05:06:19.334Z,14.30
2019-06-10T05:08:50.160Z,14.36
2019-06-10T05:11:23.758Z,14.50
2019-06-10T05:13:54.122Z,14.66
2019-06-10T05:16:28.893Z,14.83
2019-06-10T05:18:58.736Z,14.73
2019-06-10T05:21:33.730Z,14.67
2019-06-10T05:24:04.949Z,14.82
2019-06-10T05:26:35.653Z,14.99
2019-06-10T05:29:06.131Z,14.99
2019-06-10T05:31:37.087Z,15.19
2019-06-10T05:34:16.344Z,15.01
2019-06-10T05:36:47.080Z,14.78
2019-06-10T05:39:17.499Z,15.05
2019-06-10T05:41:50.281Z,15.30
2019-06-10T05:44:23.809Z,15.43
2019-06-10T05:47:00.296Z,15.45
2019-06-10T05:49:33.651Z,15.53
2019-06-10T05:52:03.048Z,15.93
2019-06-10T05:54:35.412Z,16.09
2019-06-10T05:57:06.952Z,16.14
2019-06-10T05:59:38.475Z,15.92
2019-06-10T06:02:09.655Z,16.18
2019-06-10T06:04:42.802Z,15.94
2019-06-10T06:07:16.325Z,15.75
2019-06-10T06:09:48.639Z,16.39
2019-06-10T06:12:22.551Z,16.90
2019-06-10T06:14:53.254Z,17.09
2019-06-10T06:17:25.966Z,17.32
2019-06-10T06:19:56.497Z,17.15
2019-06-10T06:22:29.486Z,16.38
2019-06-10T06:25:03.359Z,16.64
2019-06-10T06:27:36.352Z,16.88
2019-06-10T06:30:13.686Z,16.60
2019-06-10T06:32:40.066Z,16.81
2019-06-10T06:35:12.621Z,16.86
2019-06-10T06:37:49.100Z,16.64
2019-06-10T06:40:22.970Z,16.51
2019-06-10T06:42:53.538Z,16.79
2019-06-10T06:45:23.912Z,16.67
2019-06-10T06:47:56.061Z,17.12
2019-06-10T06:50:26.533Z,17.48
2019-06-10T06:55:33.336Z,19.38
2019-06-10T06:58:05.828Z,20.01
2019-06-10T07:00:59.779Z,20.72
2019-06-10T07:03:12.561Z,20.99
2019-06-10T07:05:44.413Z,20.32
2019-06-10T07:08:15.837Z,20.33
2019-06-10T07:10:47.695Z,20.61
2019-06-10T07:13:18.202Z,19.85
2019-06-10T07:15:53.525Z,20.25
2019-06-10T07:18:24.017Z,20.32
2019-06-10T07:20:54.864Z,20.29
2019-06-10T07:23:27.872Z,19.89
2019-06-10T07:26:02.105Z,20.85
2019-06-10T07:28:35.811Z,21.57
2019-06-10T07:31:20.818Z,21.09
2019-06-10T07:33:45.824Z,20.89
2019-06-10T07:36:17.063Z,19.79
2019-06-10T07:38:49.202Z,20.48
2019-06-10T07:41:23.231Z,20.23
2019-06-10T07:43:53.629Z,20.38
2019-06-10T07:46:25.687Z,20.14
2019-06-10T07:48:57.411Z,20.34
2019-06-10T07:51:29.312Z,20.24
2019-06-10T07:53:59.645Z,19.66
2019-06-10T07:56:36.565Z,18.98
2019-06-10T07:59:04.022Z,19.43
2019-06-10T08:01:36.680Z,19.65
2019-06-10T08:04:12.051Z,20.22
2019-06-10T08:06:53.008Z,19.90
2019-06-10T08:09:22.919Z,19.50
2019-06-10T08:11:55.586Z,19.85
2019-06-10T08:14:26.671Z,20.03
2019-06-10T08:16:59.454Z,20.25
2019-06-10T08:19:35.800Z,20.81
2019-06-10T08:22:02.863Z,21.62
2019-06-10T08:24:35.328Z,22.42
2019-06-10T08:27:05.778Z,23.68
2019-06-10T08:29:36.721Z,25.01
2019-06-10T08:32:07.371Z,25.07
2019-06-10T08:34:38.086Z,25.13
2019-06-10T08:37:08.624Z,25.28
2019-06-10T08:39:40.222Z,24.32
2019-06-10T08:42:12.458Z,23.34
2019-06-10T08:44:43.935Z,23.17
2019-06-10T08:47:15.473Z,23.34
2019-06-10T08:49:49.050Z,22.73
2019-06-10T08:52:20.218Z,23.00
2019-06-10T08:54:54.077Z,22.43
2019-06-10T08:57:23.818Z,22.81
2019-06-10T08:59:55.627Z,23.54
2019-06-10T09:02:26.985Z,25.15
2019-06-10T09:04:58.548Z,24.83
2019-06-10T09:07:32.339Z,23.40
2019-06-10T09:10:05.264Z,22.54
2019-06-10T09:12:36.899Z,24.43
2019-06-10T09:15:12.917Z,25.27
2019-06-10T09:17:46.406Z,25.41
2019-06-10T09:20:16.312Z,25.03
2019-06-10T09:23:00.116Z,24.70
2019-06-10T09:25:22.457Z,23.68
2019-06-10T09:27:54.792Z,26.05
2019-06-10T09:30:27.091Z,27.24
2019-06-10T09:33:00.733Z,25.50
2019-06-10T09:35:29.529Z,25.08
2019-06-10T09:38:07.048Z,24.75
2019-06-10T09:41:01.375Z,25.27
2019-06-10T09:43:26.460Z,24.27
2019-06-10T09:45:57.558Z,23.85
2019-06-10T09:48:28.656Z,25.02
2019-06-10T09:51:02.263Z,26.37
2019-06-10T09:53:42.853Z,27.70
2019-06-10T09:56:12.327Z,28.83
2019-06-10T09:58:46.095Z,27.98
2019-06-10T10:01:16.289Z,27.51
2019-06-10T10:03:50.342Z,28.42
2019-06-10T10:06:20.407Z,26.85
2019-06-10T10:08:57.532Z,26.85
2019-06-10T10:11:24.927Z,27.55
2019-06-10T10:14:09.678Z,27.92
2019-06-10T10:16:38.505Z,27.92
2019-06-10T10:19:09.294Z,28.48
2019-06-10T10:21:43.252Z,29.83
2019-06-10T10:24:14.937Z,28.07
2019-06-10T10:26:47.151Z,28.43
2019-06-10T10:29:21.220Z,29.17
2019-06-10T10:31:53.799Z,29.74
2019-06-10T10:34:25.841Z,30.56
2019-06-10T10:36:57.367Z,29.20
2019-06-10T10:39:27.874Z,27.49
2019-06-10T10:41:58.424Z,27.53
2019-06-10T10:44:28.878Z,28.02
2019-06-10T10:46:59.353Z,25.32
2019-06-10T10:49:32.918Z,24.92
2019-06-10T10:52:03.372Z,26.49
2019-06-10T10:54:36.806Z,25.86
2019-06-10T10:57:07.529Z,25.43
2019-06-10T10:59:38.384Z,25.69
2019-06-10T11:02:09.669Z,27.28
2019-06-10T11:04:44.282Z,28.29
2019-06-10T11:07:24.679Z,28.27
2019-06-10T11:09:56.808Z,28.24
2019-06-10T11:12:29.658Z,26.59
2019-06-10T11:15:02.894Z,26.43
2019-06-10T11:17:33.673Z,28.29
2019-06-10T11:20:04.503Z,28.80
2019-06-10T11:22:37.276Z,27.89
2019-06-10T11:25:07.697Z,27.39
2019-06-10T11:27:38.301Z,28.01
2019-06-10T11:30:09.075Z,28.90
2019-06-10T11:32:43.385Z,26.97
2019-06-10T11:35:14.542Z,27.51
2019-06-10T11:37:47.091Z,28.53
2019-06-10T11:40:18.658Z,29.29
2019-06-10T11:42:50.519Z,29.29
2019-06-10T11:45:22.375Z,30.33
2019-06-10T11:47:56.640Z,31.20
2019-06-10T11:50:27.146Z,30.69
2019-06-10T11:53:00.769Z,30.07
2019-06-10T11:55:30.215Z,29.72
2019-06-10T11:58:01.012Z,30.12
2019-06-10T12:00:33.151Z,29.90
2019-06-10T12:03:03.750Z,30.74
2019-06-10T12:05:34.721Z,29.99
2019-06-10T12:08:06.938Z,30.00
2019-06-10T12:10:37.345Z,27.88
2019-06-10T12:13:09.393Z,28.00
2019-06-10T12:16:13.813Z,29.29
2019-06-10T12:18:13.197Z,27.57
2019-06-10T12:20:43.670Z,27.57
2019-06-10T12:23:14.984Z,27.31
2019-06-10T12:30:56.213Z,28.25
2019-06-10T12:33:25.395Z,28.04
2019-06-10T12:36:02.152Z,28.86
2019-06-10T12:38:33.446Z,29.58
2019-06-10T12:41:09.653Z,31.08
2019-06-10T12:43:36.885Z,31.37
2019-06-10T12:46:07.409Z,31.59
2019-06-10T12:48:42.685Z,30.03
2019-06-10T12:51:23.703Z,31.79
2019-06-10T12:53:57.409Z,31.42
2019-06-10T12:56:27.831Z,30.89
2019-06-10T12:58:59.680Z,31.79
2019-06-10T13:01:32.967Z,32.02
2019-06-10T13:04:09.577Z,31.22
2019-06-10T13:06:41.620Z,30.83
2019-06-10T13:09:12.909Z,29.81
2019-06-10T13:11:45.817Z,28.94
2019-06-10T13:14:18.393Z,29.27
2019-06-10T13:16:52.662Z,30.30
2019-06-10T13:19:24.416Z,30.37
2019-06-10T13:21:55.162Z,30.00
2019-06-10T13:24:29.613Z,30.28
2019-06-10T13:27:01.408Z,30.30
2019-06-10T13:29:33.237Z,30.19
2019-06-10T13:32:06.126Z,28.04
2019-06-10T13:34:36.003Z,27.88
2019-06-10T13:37:08.150Z,29.44
2019-06-10T13:39:43.304Z,30.30
2019-06-10T13:42:14.579Z,30.86
2019-06-10T13:44:52.397Z,29.79
2019-06-10T13:47:27.928Z,30.31
2019-06-10T13:50:03.372Z,28.84
2019-06-10T13:52:32.706Z,28.47
2019-06-10T13:55:07.884Z,28.21
2019-06-10T13:57:39.192Z,28.71
2019-06-10T14:00:12.352Z,28.29
2019-06-10T14:02:46.150Z,28.39
2019-06-10T14:05:18.479Z,27.92
2019-06-10T14:07:52.111Z,26.70
2019-06-10T14:10:22.809Z,26.21
2019-06-10T14:12:53.322Z,25.46
2019-06-10T14:15:23.985Z,24.71
2019-06-10T14:17:54.376Z,24.03
2019-06-10T14:20:24.925Z,23.95
2019-06-10T14:22:55.746Z,23.78
2019-06-10T14:25:26.581Z,24.27
2019-06-10T14:27:57.100Z,24.23
2019-06-10T14:30:28.378Z,24.52
2019-06-10T14:32:59.054Z,24.62
2019-06-10T14:35:33.132Z,24.93
2019-06-10T14:38:12.990Z,25.13
2019-06-10T14:40:42.969Z,25.51
2019-06-10T14:43:16.025Z,25.93
2019-06-10T14:45:47.325Z,25.27
2019-06-10T14:48:18.052Z,24.85
2019-06-10T14:50:49.421Z,23.72
2019-06-10T14:53:22.624Z,22.80
2019-06-10T14:55:53.698Z,22.11
2019-06-10T14:58:24.482Z,22.22
2019-06-10T15:00:55.123Z,21.65
2019-06-10T15:03:25.883Z,21.78
2019-06-10T15:06:03.180Z,22.29
2019-06-10T15:08:34.002Z,22.91
2019-06-10T15:11:04.720Z,23.20
2019-06-10T15:13:35.435Z,23.03
2019-06-10T15:16:08.212Z,23.30
2019-06-10T15:18:43.299Z,23.30
2019-06-10T15:21:15.256Z,23.17
2019-06-10T15:23:47.125Z,23.25
2019-06-10T15:26:17.787Z,22.64
2019-06-10T15:28:48.254Z,22.38
2019-06-10T15:31:21.081Z,21.54
2019-06-10T15:33:52.506Z,22.15
2019-06-10T15:36:23.113Z,22.32
2019-06-10T15:38:53.601Z,22.41
2019-06-10T15:41:24.806Z,22.76
2019-06-10T15:43:56.984Z,22.17
2019-06-10T15:46:28.004Z,22.27
2019-06-10T15:48:58.737Z,21.98
2019-06-10T15:51:33.016Z,22.06
2019-06-10T15:54:03.697Z,21.67
2019-06-10T15:56:51.953Z,21.49
2019-06-10T15:59:17.993Z,21.55
2019-06-10T16:01:48.947Z,21.81
2019-06-10T16:04:20.702Z,21.85
2019-06-10T16:06:53.062Z,21.90
2019-06-10T16:09:24.248Z,21.89
2019-06-10T16:11:54.812Z,21.87
2019-06-10T16:14:28.772Z,21.27
2019-06-10T16:17:00.103Z,20.64
2019-06-10T16:19:32.836Z,20.59
2019-06-10T16:22:03.428Z,20.43
2019-06-10T16:24:37.165Z,20.27
2019-06-10T16:27:07.754Z,20.13
2019-06-10T16:29:38.106Z,20.17
2019-06-10T16:32:10.099Z,20.15
2019-06-10T16:34:41.537Z,20.18
2019-06-10T16:37:12.853Z,20.24
2019-06-10T16:39:43.458Z,20.20
2019-06-10T16:42:13.840Z,20.33
2019-06-10T16:44:44.630Z,20.58
2019-06-10T16:47:15.018Z,20.65
2019-06-10T16:49:46.756Z,20.40
2019-06-10T16:52:17.815Z,20.37
2019-06-10T16:54:49.159Z,20.38
2019-06-10T16:57:25.674Z,20.30
2019-06-10T16:59:56.505Z,20.33
2019-06-10T17:02:28.039Z,20.15
2019-06-10T17:05:03.034Z,20.10
2019-06-10T17:07:32.981Z,20.14
2019-06-10T17:10:05.942Z,20.05
2019-06-10T17:12:36.410Z,20.07
2019-06-10T17:15:08.607Z,19.92
2019-06-10T17:17:39.722Z,19.81
2019-06-10T17:20:13.126Z,19.69
2019-06-10T17:22:45.682Z,19.70
2019-06-10T17:25:19.073Z,19.65
2019-06-10T17:27:57.608Z,19.57
2019-06-10T17:30:29.949Z,19.50
2019-06-10T17:33:02.418Z,19.37
2019-06-10T17:35:36.800Z,19.37
2019-06-10T17:38:06.718Z,19.32
2019-06-10T17:40:37.590Z,19.23
2019-06-10T17:43:08.456Z,19.17
2019-06-10T17:45:42.115Z,19.18
2019-06-10T17:48:12.961Z,19.23
2019-06-10T17:50:43.699Z,19.22
2019-06-10T17:53:14.207Z,19.21
2019-06-10T17:55:44.772Z,19.15
2019-06-10T17:58:29.355Z,19.02
2019-06-10T18:00:49.434Z,18.99
2019-06-10T18:03:24.944Z,18.89
2019-06-10T18:05:57.046Z,18.74
2019-06-10T18:08:29.603Z,18.61
2019-06-10T18:11:03.222Z,18.48
2019-06-10T18:13:36.038Z,18.38
2019-06-10T18:16:09.208Z,18.31
2019-06-10T18:18:42.651Z,18.21
2019-06-10T18:21:16.093Z,18.20
2019-06-10T18:23:47.237Z,18.12
2019-06-10T18:26:17.764Z,18.09
2019-06-10T18:29:02.035Z,18.08
2019-06-10T18:31:23.443Z,18.00
2019-06-10T18:33:53.958Z,17.94
2019-06-10T18:36:28.039Z,17.87
2019-06-10T18:39:02.852Z,17.80
2019-06-10T18:41:35.505Z,17.72
2019-06-10T18:44:19.934Z,17.63
2019-06-10T18:46:43.254Z,17.52
2019-06-10T18:49:13.624Z,17.38
2019-06-10T18:51:44.302Z,17.29
2019-06-10T18:54:18.857Z,17.19
2019-06-10T18:56:52.373Z,17.12
2019-06-10T18:59:23.063Z,17.13
2019-06-10T19:01:53.594Z,17.13
2019-06-10T19:04:24.433Z,17.06
2019-06-10T19:06:54.889Z,16.94
2019-06-10T19:09:35.793Z,16.78
2019-06-10T19:12:03.504Z,16.62
2019-06-10T19:14:38.041Z,16.48
2019-06-10T19:17:08.693Z,16.42
2019-06-10T19:19:40.969Z,16.32
2019-06-10T19:22:13.257Z,16.24
2019-06-10T19:24:45.543Z,16.21
2019-06-10T19:27:19.717Z,16.23
2019-06-10T19:29:54.823Z,16.10
2019-06-10T19:32:27.003Z,16.01
2019-06-10T19:34:58.473Z,15.98
2019-06-10T19:37:29.152Z,15.91
2019-06-10T19:40:12.371Z,15.89
2019-06-10T19:42:52.503Z,15.73
2019-06-10T19:45:25.619Z,15.63
2019-06-10T19:47:56.858Z,15.49
2019-06-10T19:50:29.516Z,15.39
2019-06-10T19:53:02.484Z,15.27
2019-06-10T19:55:33.721Z,15.21
2019-06-10T19:58:04.789Z,15.19
2019-06-10T20:00:35.990Z,15.10
2019-06-10T20:03:07.711Z,14.99
2019-06-10T20:05:38.183Z,14.94
2019-06-10T20:08:09.408Z,14.93
2019-06-10T20:10:42.432Z,14.92
2019-06-10T20:13:12.905Z,14.79
2019-06-10T20:15:44.976Z,14.72
2019-06-10T20:18:15.574Z,14.61
2019-06-10T20:20:48.989Z,14.64
2019-06-10T20:23:19.515Z,14.70
2019-06-10T20:25:52.544Z,14.65
2019-06-10T20:28:23.371Z,14.52
2019-06-10T20:30:53.965Z,14.38
2019-06-10T20:33:36.980Z,14.27
2019-06-10T20:36:15.175Z,14.13
2019-06-10T20:38:40.075Z,13.97
2019-06-10T20:41:12.686Z,13.83
2019-06-10T20:43:47.371Z,13.75
2019-06-10T20:46:18.935Z,13.70
2019-06-10T20:48:51.170Z,13.67
2019-06-10T20:51:22.697Z,13.71
2019-06-10T20:53:53.925Z,13.66
2019-06-10T20:56:24.254Z,13.56
2019-06-10T20:58:55.822Z,13.47
2019-06-10T21:01:28.130Z,13.38
2019-06-10T21:03:58.485Z,13.30
2019-06-10T21:06:32.710Z,13.21
2019-06-10T21:09:03.843Z,13.09
2019-06-10T21:11:35.912Z,12.96
2019-06-10T21:14:07.151Z,12.86
2019-06-10T21:16:42.073Z,12.75
2019-06-10T21:19:13.269Z,12.64
2019-06-10T21:21:46.600Z,12.56
2019-06-10T21:24:17.431Z,12.50
2019-06-10T21:26:48.585Z,12.55
2019-06-10T21:29:20.589Z,12.48
2019-06-10T21:31:54.521Z,12.44
2019-06-10T21:34:25.033Z,12.35
2019-06-10T21:36:56.511Z,12.27
2019-06-10T21:39:32.215Z,12.18
2019-06-10T21:42:02.763Z,12.10
2019-06-10T21:44:35.703Z,12.01
2019-06-10T21:47:09.098Z,11.92
2019-06-10T21:49:39.821Z,11.85
2019-06-10T21:52:13.016Z,11.78
2019-06-10T21:54:47.151Z,11.68
2019-06-10T21:57:17.674Z,11.63
2019-06-10T21:59:48.943Z,11.60
2019-06-10T22:02:19.435Z,11.58
2019-06-10T22:04:53.767Z,11.57
2019-06-10T22:07:23.450Z,11.54
2019-06-10T22:09:56.111Z,11.46
2019-06-10T22:12:27.625Z,11.38
2019-06-10T22:14:58.037Z,11.28
2019-06-10T22:17:28.712Z,11.29
2019-06-10T22:20:00.976Z,11.35
2019-06-10T22:22:33.409Z,11.30
2019-06-10T22:25:05.421Z,11.20
2019-06-10T22:27:35.771Z,11.16
2019-06-10T22:30:11.637Z,11.13
2019-06-10T22:32:39.518Z,11.09
2019-06-10T22:35:12.193Z,10.99
2019-06-10T22:37:42.026Z,10.89
2019-06-10T22:40:12.703Z,10.81
2019-06-10T22:42:43.148Z,10.75
2019-06-10T22:45:15.684Z,10.71
2019-06-10T22:47:47.647Z,10.62
2019-06-10T22:50:18.733Z,10.57
2019-06-10T22:52:57.423Z,10.49
2019-06-10T22:55:27.237Z,10.40
2019-06-10T22:57:59.836Z,10.43
2019-06-10T23:00:31.353Z,10.38
2019-06-10T23:03:02.714Z,10.31
2019-06-10T23:05:33.633Z,10.24
2019-06-10T23:08:04.008Z,10.17
2019-06-10T23:10:35.309Z,10.14
2019-06-10T23:13:05.722Z,10.07
2019-06-10T23:15:36.039Z,10.00
2019-06-10T23:18:12.701Z,9.92
2019-06-10T23:20:43.002Z,9.88
2019-06-10T23:23:15.336Z,9.83
2019-06-10T23:25:46.052Z,9.72
2019-06-10T23:28:16.624Z,9.76
2019-06-10T23:30:53.584Z,9.71
2019-06-10T23:33:23.224Z,9.68
2019-06-10T23:35:54.516Z,9.62
2019-06-10T23:38:24.931Z,9.57
2019-06-10T23:40:57.043Z,9.60
2019-06-10T23:43:27.987Z,9.57
2019-06-10T23:45:59.270Z,9.49
2019-06-10T23:48:33.064Z,9.51
2019-06-10T23:51:05.035Z,9.52
2019-06-10T23:53:36.133Z,9.45
2019-06-10T23:56:12.825Z,9.38
2019-06-10T23:58:43.977Z,9.32
